^^
Saratoga-Weather Station Historical Data
Daily Summary for September 26, 2021 Units:  Metric    English   Both
Daily Weekly Monthly Yearly Custom
  High: Low: Average:
Temperature: 20.2 °C 13.1 °C 16.2 °C
Dew Point: 17.6 °C 12.6 °C 15 °C
Humidity: 98% 78% 93%
Wind Speed: 11.1km/h 0km/h 0.8km/h
Wind Gust: 14.5km/h - -
Wind- - WSW
Pressure: 1016.6 hPa 1013.9 hPa -
Precipitation: 1.5 mm    
Historical Graphs
 
 
Tabular Data for September 26, 2021
Time Temperature Dew Point Pressure Wind Wind Speed Wind Gust Humidity Rainfall Rate (Hourly) solar
00:00 15.6 °C 14.8 °C 1014.2 hPa Calm     95% 0.0 mm 0 W/m2
00:05 15.6 °C 14.8 °C 1014.6 hPa Calm     95% 0.0 mm 0 W/m2
00:10 15.6 °C 14.8 °C 1014.6 hPa Calm     95% 0.0 mm 0 W/m2
00:15 15.6 °C 14.8 °C 1014.6 hPa Calm     95% 0.0 mm 0 W/m2
00:20 15.6 °C 14.8 °C 1014.6 hPa Calm     95% 0.0 mm 0 W/m2
00:25 15.6 °C 14.8 °C 1014.2 hPa Calm     95% 0.0 mm 0 W/m2
00:30 15.6 °C 14.8 °C 1014.2 hPa Calm     95% 0.0 mm 0 W/m2
00:35 15.6 °C 15 °C 1014.2 hPa Calm     96% 0.0 mm 0 W/m2
00:40 15.7 °C 15.1 °C 1014.2 hPa Calm     96% 0.0 mm 0 W/m2
00:45 15.7 °C 15.1 °C 1014.2 hPa Calm   3.2 km/h 96% 0.0 mm 0 W/m2
00:50 15.7 °C 15.1 °C 1014.6 hPa Calm     96% 0.0 mm 0 W/m2
00:55 15.6 °C 15 °C 1014.2 hPa Calm   1.6 km/h 96% 0.0 mm 0 W/m2
01:00 15.6 °C 15 °C 1014.6 hPa Calm     96% 0.0 mm 0 W/m2
01:05 15.6 °C 15 °C 1014.2 hPa Calm     96% 0.0 mm 0 W/m2
01:10 15.5 °C 14.9 °C 1014.6 hPa Calm     96% 0.0 mm 0 W/m2
01:15 15.4 °C 14.8 °C 1014.2 hPa Calm     96% 0.0 mm 0 W/m2
01:20 15.4 °C 14.8 °C 1014.6 hPa Calm     96% 0.0 mm 0 W/m2
01:25 15.3 °C 14.7 °C 1014.6 hPa Calm     96% 0.0 mm 0 W/m2
01:30 15.2 °C 14.4 °C 1014.6 hPa Calm     95% 0.0 mm 0 W/m2
01:35 15.2 °C 14.6 °C 1014.6 hPa Calm     96% 0.0 mm 0 W/m2
01:40 15.1 °C 14.5 °C 1014.6 hPa Calm     96% 0.0 mm 0 W/m2
01:45 15 °C 14.2 °C 1014.2 hPa Calm     95% 0.0 mm 0 W/m2
01:50 14.9 °C 14.1 °C 1014.2 hPa Calm     95% 0.0 mm 0 W/m2
01:55 14.8 °C 14.2 °C 1014.6 hPa Calm     96% 0.0 mm 0 W/m2
02:00 14.7 °C 14.1 °C 1014.6 hPa Calm     96% 0.0 mm 0 W/m2
02:05 14.7 °C 14.1 °C 1014.6 hPa Calm     96% 0.0 mm 0 W/m2
02:10 14.6 °C 14 °C 1014.6 hPa Calm     96% 0.0 mm 0 W/m2
02:15 14.6 °C 14 °C 1014.6 hPa Calm     96% 0.0 mm 0 W/m2
02:20 14.6 °C 14 °C 1014.6 hPa Calm     96% 0.0 mm 0 W/m2
02:25 14.7 °C 14.1 °C 1014.2 hPa Calm     96% 0.0 mm 0 W/m2
02:30 14.6 °C 14 °C 1014.2 hPa Calm     96% 0.0 mm 0 W/m2
02:35 14.7 °C 14.1 °C 1014.2 hPa Calm     96% 0.0 mm 0 W/m2
02:40 14.7 °C 14.1 °C 1014.2 hPa Calm     96% 0.0 mm 0 W/m2
02:45 14.7 °C 14.1 °C 1014.2 hPa Calm     96% 0.0 mm 0 W/m2
02:50 14.7 °C 14.1 °C 1014.2 hPa Calm     96% 0.0 mm 0 W/m2
02:55 14.6 °C 14 °C 1014.2 hPa Calm     96% 0.0 mm 0 W/m2
03:00 14.7 °C 14.1 °C 1014.2 hPa Calm     96% 0.0 mm 0 W/m2
03:05 14.7 °C 14.1 °C 1014.2 hPa Calm     96% 0.0 mm 0 W/m2
03:10 14.7 °C 14.1 °C 1014.6 hPa Calm     96% 0.0 mm 0 W/m2
03:15 14.6 °C 14 °C 1014.6 hPa Calm     96% 0.0 mm 0 W/m2
03:20 14.6 °C 14 °C 1014.6 hPa Calm     96% 0.0 mm 0 W/m2
03:25 14.5 °C 13.9 °C 1014.6 hPa Calm     96% 0.0 mm 0 W/m2
03:30 14.4 °C 13.8 °C 1014.6 hPa Calm     96% 0.0 mm 0 W/m2
03:35 14.4 °C 13.8 °C 1014.9 hPa Calm     96% 0.0 mm 0 W/m2
03:41 14.3 °C 13.7 °C 1014.6 hPa Calm     96% 0.0 mm 0 W/m2
03:46 14.3 °C 13.7 °C 1014.6 hPa Calm     96% 0.0 mm 0 W/m2
03:51 14.2 °C 13.6 °C 1014.6 hPa Calm     96% 0.0 mm 0 W/m2
03:56 14.2 °C 13.6 °C 1014.6 hPa Calm     96% 0.0 mm 0 W/m2
04:01 14.1 °C 13.5 °C 1014.6 hPa Calm     96% 0.0 mm 0 W/m2
04:06 14.1 °C 13.5 °C 1014.6 hPa Calm     96% 0.0 mm 0 W/m2
04:11 14.2 °C 13.7 °C 1014.6 hPa Calm     97% 0.0 mm 0 W/m2
04:16 14.3 °C 13.8 °C 1014.6 hPa Calm   1.6 km/h 97% 0.0 mm 0 W/m2
04:21 14.4 °C 13.9 °C 1014.6 hPa SSE 1.4 km/h 1.6 km/h 97% 0.0 mm 0 W/m2
04:26 14.6 °C 14.1 °C 1014.6 hPa Calm     97% 0.0 mm 0 W/m2
04:31 14.4 °C 13.9 °C 1014.6 hPa Calm     97% 0.0 mm 0 W/m2
04:36 14.3 °C 13.7 °C 1014.6 hPa Calm     96% 0.2 mm 0 W/m2
04:41 14.3 °C 13.7 °C 1014.6 hPa Calm     96% 0.2 mm 0 W/m2
04:46 14.2 °C 13.6 °C 1014.6 hPa Calm   1.6 km/h 96% 0.2 mm 0 W/m2
04:51 14.2 °C 13.6 °C 1014.6 hPa Calm     96% 0.2 mm 0 W/m2
04:56 14.1 °C 13.5 °C 1014.2 hPa Calm     96% 0.2 mm 0 W/m2
05:01 14.1 °C 13.5 °C 1014.6 hPa Calm     96% 0.2 mm 0 W/m2
05:06 14 °C 13.4 °C 1014.6 hPa Calm     96% 0.2 mm 0 W/m2
05:11 14 °C 13.4 °C 1014.6 hPa Calm     96% 0.2 mm 0 W/m2
05:16 14 °C 13.5 °C 1014.6 hPa Calm     97% 0.2 mm 0 W/m2
05:21 14.1 °C 13.6 °C 1014.6 hPa Calm     97% 0.2 mm 0 W/m2
05:26 14 °C 13.5 °C 1014.6 hPa Calm     97% 0.2 mm 0 W/m2
05:31 13.9 °C 13.4 °C 1014.6 hPa Calm     97% 0.2 mm 0 W/m2
05:36 13.8 °C 13.3 °C 1014.6 hPa Calm     97% 0.0 mm 0 W/m2
05:41 13.8 °C 13.3 °C 1014.2 hPa Calm     97% 0.0 mm 0 W/m2
05:46 13.7 °C 13.1 °C 1014.2 hPa Calm     96% 0.0 mm 0 W/m2
05:51 13.7 °C 13.1 °C 1014.2 hPa Calm     96% 0.0 mm 0 W/m2
05:56 13.7 °C 13.2 °C 1014.2 hPa Calm     97% 0.0 mm 0 W/m2
06:01 13.7 °C 13.2 °C 1013.9 hPa Calm     97% 0.0 mm 0 W/m2
06:06 13.6 °C 13.1 °C 1014.2 hPa Calm     97% 0.0 mm 0 W/m2
06:11 13.6 °C 13.1 °C 1014.2 hPa Calm     97% 0.0 mm 0 W/m2
06:16 13.5 °C 13 °C 1014.2 hPa Calm     97% 0.0 mm 0 W/m2
06:21 13.5 °C 13 °C 1014.2 hPa SE 1.4 km/h 3.2 km/h 97% 0.0 mm 0 W/m2
06:26 13.6 °C 13.1 °C 1014.6 hPa Calm   3.2 km/h 97% 0.0 mm 0 W/m2
06:31 13.6 °C 13.1 °C 1014.6 hPa Calm     97% 0.0 mm 0 W/m2
06:36 13.6 °C 13.1 °C 1014.6 hPa Calm     97% 0.0 mm 0 W/m2
06:41 13.5 °C 13 °C 1014.6 hPa SE 1.4 km/h 1.6 km/h 97% 0.0 mm 0 W/m2
06:46 13.4 °C 12.9 °C 1014.6 hPa Calm   1.6 km/h 97% 0.0 mm 0 W/m2
06:51 13.4 °C 12.9 °C 1014.6 hPa Calm     97% 0.0 mm 0 W/m2
06:56 13.4 °C 12.9 °C 1014.6 hPa Calm     97% 0.0 mm 0 W/m2
07:01 13.4 °C 12.9 °C 1014.6 hPa Calm     97% 0.0 mm 0 W/m2
07:06 13.3 °C 12.8 °C 1014.6 hPa Calm     97% 0.0 mm 0 W/m2
07:11 13.3 °C 12.8 °C 1014.9 hPa Calm     97% 0.0 mm 0 W/m2
07:16 13.3 °C 12.8 °C 1014.9 hPa Calm     97% 0.0 mm 0 W/m2
07:21 13.3 °C 12.8 °C 1014.6 hPa Calm     97% 0.0 mm 0 W/m2
07:26 13.2 °C 12.7 °C 1014.6 hPa Calm     97% 0.0 mm 0 W/m2
07:31 13.2 °C 12.7 °C 1014.6 hPa Calm     97% 0.0 mm 5 W/m2
07:36 13.2 °C 12.7 °C 1014.9 hPa Calm     97% 0.0 mm 7 W/m2
07:41 13.2 °C 12.7 °C 1014.9 hPa Calm     97% 0.0 mm 11 W/m2
07:46 13.1 °C 12.6 °C 1014.9 hPa Calm     97% 0.0 mm 14 W/m2
07:51 13.1 °C 12.6 °C 1014.9 hPa Calm     97% 0.0 mm 23 W/m2
07:56 13.2 °C 12.7 °C 1014.9 hPa SE 1.4 km/h 3.2 km/h 97% 0.0 mm 26 W/m2
08:01 13.3 °C 12.8 °C 1014.9 hPa Calm     97% 0.0 mm 32 W/m2
08:06 13.4 °C 12.9 °C 1014.9 hPa Calm     97% 0.0 mm 44 W/m2
08:11 13.4 °C 12.9 °C 1014.9 hPa Calm     97% 0.0 mm 40 W/m2
08:16 13.6 °C 13.1 °C 1014.9 hPa Calm     97% 0.0 mm 40 W/m2
08:21 13.7 °C 13.2 °C 1014.9 hPa Calm     97% 0.0 mm 44 W/m2
08:26 13.7 °C 13.2 °C 1014.9 hPa Calm     97% 0.0 mm 47 W/m2
08:31 13.8 °C 13.3 °C 1015.2 hPa ESE 3.2 km/h 6.4 km/h 97% 0.0 mm 49 W/m2
08:36 13.9 °C 13.4 °C 1015.2 hPa ESE 3.2 km/h 6.4 km/h 97% 0.0 mm 47 W/m2
08:41 13.9 °C 13.4 °C 1015.2 hPa ESE 3.2 km/h 6.4 km/h 97% 0.0 mm 42 W/m2
08:46 14 °C 13.5 °C 1015.2 hPa Calm     97% 0.0 mm 44 W/m2
08:51 14.1 °C 13.6 °C 1015.2 hPa Calm   6.4 km/h 97% 0.0 mm 46 W/m2
08:57 14.2 °C 13.7 °C 1015.2 hPa East 3.2 km/h 4.8 km/h 97% 0.0 mm 49 W/m2
09:02 14.2 °C 13.7 °C 1015.2 hPa Calm   3.2 km/h 97% 0.0 mm 51 W/m2
09:07 14.2 °C 13.7 °C 1015.2 hPa Calm     97% 0.0 mm 49 W/m2
09:12 14.2 °C 13.7 °C 1015.2 hPa Calm   3.2 km/h 97% 0.0 mm 44 W/m2
09:17 14.2 °C 13.7 °C 1015.2 hPa Calm     97% 0.0 mm 44 W/m2
09:22 14.2 °C 13.7 °C 1015.2 hPa East 1.4 km/h 3.2 km/h 97% 0.0 mm 37 W/m2
09:27 14.2 °C 13.7 °C 1015.2 hPa North 1.4 km/h 3.2 km/h 97% 0.0 mm 40 W/m2
09:32 14.3 °C 13.8 °C 1015.2 hPa Calm   1.6 km/h 97% 0.2 mm 47 W/m2
09:37 14.4 °C 13.9 °C 1015.2 hPa WNW 1.4 km/h 4.8 km/h 97% 0.5 mm 49 W/m2
09:42 14.4 °C 13.9 °C 1015.2 hPa Calm   4.8 km/h 97% 0.5 mm 47 W/m2
09:47 14.4 °C 13.9 °C 1015.2 hPa Calm   1.6 km/h 97% 0.5 mm 51 W/m2
09:52 14.6 °C 14.1 °C 1015.2 hPa WNW 1.4 km/h 4.8 km/h 97% 0.5 mm 60 W/m2
09:57 14.7 °C 14.2 °C 1015.2 hPa Calm     97% 0.5 mm 56 W/m2
10:02 14.8 °C 14.3 °C 1015.2 hPa Calm   3.2 km/h 97% 0.5 mm 60 W/m2
10:07 14.8 °C 14.3 °C 1015.6 hPa Calm     97% 0.5 mm 79 W/m2
10:12 14.9 °C 14.6 °C 1015.6 hPa Calm     98% 0.5 mm 79 W/m2
10:17 15.1 °C 14.8 °C 1015.6 hPa Calm   1.6 km/h 98% 0.5 mm 65 W/m2
10:22 15.2 °C 14.7 °C 1015.9 hPa East 3.2 km/h 4.8 km/h 97% 0.5 mm 51 W/m2
10:27 15.2 °C 14.7 °C 1015.9 hPa East 1.4 km/h 6.4 km/h 97% 0.5 mm 42 W/m2
10:32 15.2 °C 14.7 °C 1015.9 hPa East 1.4 km/h 3.2 km/h 97% 0.5 mm 40 W/m2
10:37 15.2 °C 14.7 °C 1015.9 hPa East 1.4 km/h 6.4 km/h 97% 0.2 mm 40 W/m2
10:42 15.2 °C 14.7 °C 1015.9 hPa Calm   3.2 km/h 97% 0.2 mm 42 W/m2
10:47 15.2 °C 14.7 °C 1015.9 hPa ESE 3.2 km/h 4.8 km/h 97% 0.0 mm 54 W/m2
10:52 15.2 °C 14.7 °C 1016.3 hPa Calm   3.2 km/h 97% 0.0 mm 54 W/m2
10:57 15.2 °C 14.7 °C 1016.3 hPa Calm   3.2 km/h 97% 0.0 mm 49 W/m2
11:02 15.2 °C 14.7 °C 1016.3 hPa Calm   3.2 km/h 97% 0.0 mm 76 W/m2
11:07 15.3 °C 15 °C 1016.3 hPa ESE 1.4 km/h 3.2 km/h 98% 0.0 mm 83 W/m2
11:12 15.5 °C 15 °C 1016.3 hPa Calm     97% 0.0 mm 65 W/m2
11:17 15.7 °C 15.2 °C 1016.3 hPa Calm   3.2 km/h 97% 0.0 mm 47 W/m2
11:22 15.8 °C 15.5 °C 1016.3 hPa Calm   1.6 km/h 98% 0.0 mm 39 W/m2
11:27 15.8 °C 15.5 °C 1016.3 hPa East 3.2 km/h 3.2 km/h 98% 0.0 mm 46 W/m2
11:32 15.7 °C 15.4 °C 1016.3 hPa Calm   3.2 km/h 98% 0.0 mm 37 W/m2
11:37 15.7 °C 15.4 °C 1016.3 hPa Calm   1.6 km/h 98% 0.0 mm 33 W/m2
11:42 15.7 °C 15.4 °C 1016.6 hPa Calm     98% 0.0 mm 46 W/m2
11:47 15.7 °C 15.2 °C 1016.6 hPa Calm     97% 0.2 mm 93 W/m2
11:52 15.8 °C 15.3 °C 1016.6 hPa Calm     97% 0.2 mm 76 W/m2
11:57 16 °C 15.5 °C 1016.6 hPa Calm     97% 0.5 mm 63 W/m2
12:02 16.1 °C 15.8 °C 1016.6 hPa East 1.4 km/h 3.2 km/h 98% 0.5 mm 114 W/m2
12:07 16.2 °C 15.9 °C 1016.6 hPa Calm   1.6 km/h 98% 0.5 mm 105 W/m2
12:12 16.3 °C 16 °C 1016.3 hPa East 1.4 km/h 3.2 km/h 98% 0.8 mm 118 W/m2
12:17 16.4 °C 16.1 °C 1016.3 hPa Calm     98% 0.8 mm 107 W/m2
12:22 16.4 °C 16.1 °C 1016.3 hPa Calm     98% 0.8 mm 169 W/m2
12:27 16.6 °C 16.3 °C 1016.3 hPa Calm     98% 0.8 mm 234 W/m2
12:32 16.7 °C 16.4 °C 1016.3 hPa NW 3.2 km/h 4.8 km/h 98% 0.8 mm 185 W/m2
12:37 16.7 °C 16.4 °C 1016.3 hPa WSW 4.7 km/h 4.8 km/h 98% 0.8 mm 207 W/m2
12:42 16.7 °C 16.4 °C 1016.3 hPa Calm   1.6 km/h 98% 0.8 mm 218 W/m2
12:47 16.8 °C 16.5 °C 1016.3 hPa Calm     98% 0.5 mm 223 W/m2
12:52 16.9 °C 16.6 °C 1016.3 hPa Calm     98% 0.5 mm 248 W/m2
12:57 17 °C 16.7 °C 1016.3 hPa NW 1.4 km/h 6.4 km/h 98% 0.5 mm 285 W/m2
13:02 17.1 °C 16.8 °C 1016.3 hPa Calm   3.2 km/h 98% 0.2 mm 265 W/m2
13:07 17.2 °C 16.9 °C 1015.9 hPa WNW 4.7 km/h 6.4 km/h 98% 0.2 mm 290 W/m2
13:12 17.4 °C 17.1 °C 1016.3 hPa West 3.2 km/h 11.3 km/h 98% 0.0 mm 309 W/m2
13:17 17.7 °C 17.2 °C 1016.3 hPa WNW 3.2 km/h 6.4 km/h 97% 0.0 mm 250 W/m2
13:22 18 °C 17.5 °C 1016.3 hPa NNW 1.4 km/h 4.8 km/h 97% 0.0 mm 278 W/m2
13:27 18.2 °C 17.6 °C 1016.3 hPa North 1.4 km/h 4.8 km/h 96% 0.0 mm 227 W/m2
13:32 18.5 °C 17.5 °C 1016.3 hPa Calm   3.2 km/h 94% 0.0 mm 334 W/m2
13:37 18.7 °C 17.5 °C 1016.3 hPa West 11.1 km/h 11.3 km/h 93% 0.0 mm 313 W/m2
13:42 18.9 °C 17.6 °C 1016.3 hPa West 1.4 km/h 4.8 km/h 92% 0.0 mm 294 W/m2
13:47 19.1 °C 17.6 °C 1015.9 hPa NW 1.4 km/h 4.8 km/h 91% 0.0 mm 341 W/m2
13:52 19.2 °C 17.3 °C 1015.9 hPa Calm   3.2 km/h 89% 0.0 mm 278 W/m2
13:57 19.3 °C 17.3 °C 1015.9 hPa Calm   6.4 km/h 88% 0.0 mm 320 W/m2
14:02 19.4 °C 17.2 °C 1015.9 hPa Calm   4.8 km/h 87% 0.0 mm 408 W/m2
14:07 19.5 °C 17.3 °C 1015.9 hPa Calm     87% 0.0 mm 186 W/m2
14:12 19.6 °C 17.2 °C 1015.9 hPa West 3.2 km/h 4.8 km/h 86% 0.0 mm 132 W/m2
14:17 19.6 °C 17.2 °C 1015.6 hPa SW 3.2 km/h 4.8 km/h 86% 0.0 mm 197 W/m2
14:22 19.6 °C 17.2 °C 1015.9 hPa Calm   3.2 km/h 86% 0.0 mm 113 W/m2
14:27 19.5 °C 17.3 °C 1015.9 hPa WNW 1.4 km/h 3.2 km/h 87% 0.0 mm 76 W/m2
14:32 19.5 °C 17.3 °C 1015.9 hPa NW 4.7 km/h 4.8 km/h 87% 0.0 mm 267 W/m2
14:37 19.5 °C 17.3 °C 1015.9 hPa WSW 4.7 km/h 6.4 km/h 87% 0.0 mm 185 W/m2
14:42 19.5 °C 17.3 °C 1015.9 hPa West 6.4 km/h 9.7 km/h 87% 0.0 mm 246 W/m2
14:47 19.4 °C 17 °C 1015.9 hPa WNW 1.4 km/h 6.4 km/h 86% 0.0 mm 200 W/m2
14:52 19.3 °C 16.9 °C 1015.9 hPa WNW 6.4 km/h 6.4 km/h 86% 0.0 mm 209 W/m2
14:57 19.3 °C 16.9 °C 1015.9 hPa NNW 4.7 km/h 4.8 km/h 86% 0.0 mm 155 W/m2
15:02 19.2 °C 16.6 °C 1015.9 hPa Calm   11.3 km/h 85% 0.0 mm 186 W/m2
15:07 19.1 °C 16.5 °C 1015.9 hPa NW 4.7 km/h 12.9 km/h 85% 0.0 mm 178 W/m2
15:12 19.1 °C 16.5 °C 1015.9 hPa WNW 3.2 km/h 11.3 km/h 85% 0.0 mm 334 W/m2
15:17 19.1 °C 16.5 °C 1015.9 hPa WNW 4.7 km/h 12.9 km/h 85% 0.0 mm 234 W/m2
15:22 19.2 °C 16.4 °C 1016.3 hPa NNE 1.4 km/h 3.2 km/h 84% 0.0 mm 285 W/m2
15:27 19.2 °C 16.4 °C 1016.3 hPa NW 6.4 km/h 14.5 km/h 84% 0.0 mm 230 W/m2
15:32 19.2 °C 16.4 °C 1016.3 hPa NNW 3.2 km/h 3.2 km/h 84% 0.0 mm 262 W/m2
15:37 19.3 °C 16.5 °C 1016.3 hPa NW 6.4 km/h 14.5 km/h 84% 0.0 mm 139 W/m2
15:42 19.2 °C 16.4 °C 1016.3 hPa WNW 4.7 km/h 8 km/h 84% 0.0 mm 93 W/m2
15:47 19.2 °C 16.4 °C 1016.3 hPa NW 4.7 km/h 8 km/h 84% 0.0 mm 93 W/m2
15:52 19.1 °C 16.3 °C 1016.3 hPa NW 1.4 km/h 11.3 km/h 84% 0.0 mm 93 W/m2
15:57 19.1 °C 16.3 °C 1016.3 hPa Calm   1.6 km/h 84% 0.0 mm 135 W/m2
16:02 19.1 °C 16.7 °C 1016.3 hPa WSW 1.4 km/h 11.3 km/h 86% 0.0 mm 163 W/m2
16:07 19.1 °C 16.5 °C 1016.3 hPa WNW 1.4 km/h 4.8 km/h 85% 0.0 mm 285 W/m2
16:12 19.2 °C 16.4 °C 1016.3 hPa Calm   6.4 km/h 84% 0.0 mm 204 W/m2
16:17 19.3 °C 16.5 °C 1015.9 hPa Calm   6.4 km/h 84% 0.0 mm 209 W/m2
16:22 19.4 °C 16.4 °C 1015.9 hPa Calm   4.8 km/h 83% 0.0 mm 169 W/m2
16:27 19.5 °C 16.7 °C 1015.9 hPa WSW 4.7 km/h 4.8 km/h 84% 0.0 mm 213 W/m2
16:32 19.5 °C 16.5 °C 1015.9 hPa Calm   4.8 km/h 83% 0.0 mm 255 W/m2
16:37 19.7 °C 16.7 °C 1015.9 hPa WNW 4.7 km/h 11.3 km/h 83% 0.0 mm 258 W/m2
16:43 19.7 °C 16.5 °C 1015.9 hPa WNW 1.4 km/h 11.3 km/h 82% 0.0 mm 195 W/m2
16:48 19.7 °C 16.5 °C 1015.6 hPa West 6.4 km/h 9.7 km/h 82% 0.0 mm 183 W/m2
16:53 19.6 °C 16.4 °C 1015.6 hPa WNW 6.4 km/h 6.4 km/h 82% 0.0 mm 151 W/m2
16:58 19.6 °C 16.4 °C 1015.6 hPa West 1.4 km/h 4.8 km/h 82% 0.0 mm 207 W/m2
17:03 19.6 °C 16.4 °C 1015.6 hPa NW 1.4 km/h 4.8 km/h 82% 0.0 mm 243 W/m2
17:08 19.8 °C 16.6 °C 1015.6 hPa West 6.4 km/h 6.4 km/h 82% 0.0 mm 223 W/m2
17:13 19.9 °C 16.5 °C 1015.6 hPa WSW 1.4 km/h 6.4 km/h 81% 0.0 mm 408 W/m2
17:18 20 °C 16.4 °C 1015.6 hPa WNW 1.4 km/h 9.7 km/h 80% 0.0 mm 179 W/m2
17:23 20.1 °C 16.3 °C 1015.6 hPa West 3.2 km/h 4.8 km/h 79% 0.0 mm 246 W/m2
17:28 20.1 °C 16.1 °C 1015.6 hPa NNW 3.2 km/h 9.7 km/h 78% 0.0 mm 216 W/m2
17:33 20.2 °C 16.6 °C 1015.6 hPa West 1.4 km/h 4.8 km/h 80% 0.0 mm 183 W/m2
17:38 20.1 °C 16.5 °C 1015.6 hPa Calm   1.6 km/h 80% 0.0 mm 135 W/m2
17:43 20.2 °C 17 °C 1015.6 hPa Calm   1.6 km/h 82% 0.0 mm 109 W/m2
17:48 20.1 °C 16.9 °C 1015.9 hPa Calm     82% 0.0 mm 104 W/m2
17:53 20.1 °C 17.1 °C 1015.6 hPa Calm     83% 0.0 mm 88 W/m2
17:58 19.9 °C 16.9 °C 1015.6 hPa Calm     83% 0.0 mm 63 W/m2
18:03 19.8 °C 17 °C 1015.6 hPa Calm     84% 0.0 mm 51 W/m2
18:08 19.7 °C 17.1 °C 1015.6 hPa Calm     85% 0.0 mm 49 W/m2
18:13 19.4 °C 17 °C 1015.6 hPa Calm     86% 0.0 mm 51 W/m2
18:18 19.2 °C 16.8 °C 1015.6 hPa Calm     86% 0.0 mm 51 W/m2
18:23 19.1 °C 16.9 °C 1015.6 hPa Calm     87% 0.0 mm 49 W/m2
18:28 18.9 °C 16.7 °C 1015.6 hPa Calm   1.6 km/h 87% 0.0 mm 46 W/m2
18:33 18.8 °C 16.6 °C 1015.6 hPa Calm     87% 0.0 mm 47 W/m2
18:38 18.6 °C 16.6 °C 1015.9 hPa Calm     88% 0.0 mm 46 W/m2
18:43 18.4 °C 16.4 °C 1015.6 hPa Calm     88% 0.0 mm 46 W/m2
18:48 18.3 °C 16.5 °C 1015.9 hPa Calm     89% 0.0 mm 49 W/m2
18:53 18.3 °C 16.5 °C 1015.9 hPa Calm     89% 0.0 mm 51 W/m2
18:58 18.2 °C 16.4 °C 1016.3 hPa Calm     89% 0.0 mm 33 W/m2
19:03 18.2 °C 16.5 °C 1016.3 hPa Calm     90% 0.0 mm 25 W/m2
19:08 18.1 °C 16.4 °C 1015.9 hPa Calm     90% 0.0 mm 19 W/m2
19:13 18.1 °C 16.4 °C 1016.3 hPa Calm     90% 0.0 mm 14 W/m2
19:18 17.9 °C 16.2 °C 1016.3 hPa Calm     90% 0.0 mm 9 W/m2
19:23 17.9 °C 16.2 °C 1016.3 hPa Calm     90% 0.0 mm 0 W/m2
19:28 17.8 °C 16.1 °C 1016.3 hPa Calm     90% 0.0 mm 0 W/m2
19:33 17.7 °C 16 °C 1016.3 hPa Calm     90% 0.0 mm 0 W/m2
19:38 17.7 °C 16 °C 1016.3 hPa Calm     90% 0.0 mm 0 W/m2
19:43 17.6 °C 15.9 °C 1016.3 hPa Calm     90% 0.0 mm 0 W/m2
19:48 17.4 °C 15.9 °C 1016.3 hPa Calm     91% 0.0 mm 0 W/m2
19:53 17.3 °C 15.6 °C 1016.3 hPa Calm     90% 0.0 mm 0 W/m2
19:58 17.1 °C 15.6 °C 1016.3 hPa Calm     91% 0.0 mm 0 W/m2
20:03 17 °C 15.5 °C 1016.3 hPa Calm     91% 0.0 mm 0 W/m2
20:08 16.8 °C 15.3 °C 1016.3 hPa Calm     91% 0.0 mm 0 W/m2
20:13 16.7 °C 15.2 °C 1016.3 hPa Calm     91% 0.0 mm 0 W/m2
20:18 16.5 °C 15 °C 1016.3 hPa Calm     91% 0.0 mm 0 W/m2
20:23 16.4 °C 14.9 °C 1016.3 hPa Calm     91% 0.0 mm 0 W/m2
20:28 16.2 °C 14.9 °C 1016.3 hPa Calm     92% 0.0 mm 0 W/m2
20:33 16.1 °C 14.8 °C 1016.3 hPa Calm     92% 0.0 mm 0 W/m2
20:38 15.9 °C 14.6 °C 1016.6 hPa Calm     92% 0.0 mm 0 W/m2
20:43 15.8 °C 14.7 °C 1016.6 hPa Calm     93% 0.0 mm 0 W/m2
20:48 15.7 °C 14.6 °C 1016.6 hPa Calm     93% 0.0 mm 0 W/m2
20:53 15.7 °C 14.6 °C 1016.6 hPa Calm   1.6 km/h 93% 0.0 mm 0 W/m2
20:58 15.7 °C 14.7 °C 1016.6 hPa NE 1.4 km/h 3.2 km/h 94% 0.0 mm 0 W/m2
21:03 15.7 °C 14.7 °C 1016.6 hPa WSW 3.2 km/h 3.2 km/h 94% 0.0 mm 0 W/m2
21:08 15.7 °C 14.7 °C 1016.6 hPa Calm   1.6 km/h 94% 0.0 mm 0 W/m2
21:13 15.8 °C 14.8 °C 1016.6 hPa Calm   1.6 km/h 94% 0.0 mm 0 W/m2
21:18 15.8 °C 14.8 °C 1016.6 hPa Calm     94% 0.0 mm 0 W/m2
21:23 15.8 °C 14.8 °C 1016.6 hPa WSW 1.4 km/h 3.2 km/h 94% 0.0 mm 0 W/m2
21:28 15.8 °C 14.8 °C 1016.6 hPa Calm   1.6 km/h 94% 0.0 mm 0 W/m2
21:33 15.9 °C 14.9 °C 1016.6 hPa NNW 1.4 km/h 1.6 km/h 94% 0.0 mm 0 W/m2
21:38 16.1 °C 15.1 °C 1016.6 hPa Calm   6.4 km/h 94% 0.0 mm 0 W/m2
21:43 16.1 °C 15 °C 1016.6 hPa Calm   3.2 km/h 93% 0.0 mm 0 W/m2
21:48 16.3 °C 15.3 °C 1016.6 hPa NW 1.4 km/h 6.4 km/h 94% 0.0 mm 0 W/m2
21:53 16.4 °C 15.3 °C 1016.6 hPa Calm     93% 0.0 mm 0 W/m2
21:58 16.4 °C 15.1 °C 1016.6 hPa Calm   3.2 km/h 92% 0.0 mm 0 W/m2
22:03 16.3 °C 15 °C 1016.6 hPa Calm     92% 0.0 mm 0 W/m2
22:08 16.2 °C 15.1 °C 1016.6 hPa Calm   1.6 km/h 93% 0.0 mm 0 W/m2
22:13 16.2 °C 15.1 °C 1016.6 hPa Calm   6.4 km/h 93% 0.0 mm 0 W/m2
22:18 16.2 °C 15.1 °C 1016.6 hPa WNW 1.4 km/h 6.4 km/h 93% 0.0 mm 0 W/m2
22:23 16.3 °C 15 °C 1016.6 hPa WNW 1.4 km/h 3.2 km/h 92% 0.0 mm 0 W/m2
22:28 16.2 °C 14.9 °C 1016.6 hPa Calm   1.6 km/h 92% 0.0 mm 0 W/m2
22:33 16.2 °C 14.9 °C 1016.6 hPa Calm     92% 0.0 mm 0 W/m2
22:38 16.2 °C 14.9 °C 1016.6 hPa Calm   4.8 km/h 92% 0.0 mm 0 W/m2
22:43 16.2 °C 14.9 °C 1016.6 hPa Calm   3.2 km/h 92% 0.0 mm 0 W/m2
22:48 16.1 °C 14.8 °C 1016.6 hPa Calm   4.8 km/h 92% 0.0 mm 0 W/m2
22:53 16.1 °C 14.8 °C 1016.6 hPa Calm   4.8 km/h 92% 0.0 mm 0 W/m2
22:58 16.1 °C 14.8 °C 1016.6 hPa Calm   1.6 km/h 92% 0.0 mm 0 W/m2
23:03 16.1 °C 14.8 °C 1016.6 hPa NNE 4.7 km/h 4.8 km/h 92% 0.0 mm 0 W/m2
23:08 16.1 °C 14.8 °C 1016.6 hPa WSW 3.2 km/h 4.8 km/h 92% 0.0 mm 0 W/m2
23:13 16.2 °C 14.7 °C 1016.6 hPa Calm   3.2 km/h 91% 0.0 mm 0 W/m2
23:18 16.2 °C 14.7 °C 1016.6 hPa Calm   3.2 km/h 91% 0.0 mm 0 W/m2
23:23 16.2 °C 14.7 °C 1016.6 hPa SSW 1.4 km/h 3.2 km/h 91% 0.0 mm 0 W/m2
23:28 16.2 °C 14.6 °C 1016.6 hPa WNW 1.4 km/h 4.8 km/h 90% 0.0 mm 0 W/m2
23:33 16.2 °C 14.6 °C 1016.6 hPa Calm   1.6 km/h 90% 0.0 mm 0 W/m2
23:38 16.2 °C 14.6 °C 1016.6 hPa North 1.4 km/h 3.2 km/h 90% 0.0 mm 0 W/m2
23:43 16.1 °C 14.5 °C 1016.6 hPa Calm   1.6 km/h 90% 0.0 mm 0 W/m2
23:48 16.1 °C 14.5 °C 1016.6 hPa NW 3.2 km/h 4.8 km/h 90% 0.0 mm 0 W/m2
23:53 16.2 °C 14.6 °C 1016.6 hPa North 1.4 km/h 3.2 km/h 90% 0.0 mm 0 W/m2
23:58 16.2 °C 14.6 °C 1016.6 hPa Calm   3.2 km/h 90% 0.0 mm 0 W/m2
Juneau County Weather
Compliments of Weather Underground - 4 mb